sensor_id;sensor_type;location;lat;lon;timestamp;P1;durP1;ratioP1;P2;durP2;ratioP2
10717;SDS011;13513;42.700;23.124;2023-05-07T00:02:22;6.00;;;4.70;;
10717;SDS011;13513;42.700;23.124;2023-05-07T00:04:53;5.67;;;4.60;;
10717;SDS011;13513;42.700;23.124;2023-05-07T00:07:23;6.80;;;4.87;;
10717;SDS011;13513;42.700;23.124;2023-05-07T00:09:54;6.97;;;5.37;;
10717;SDS011;13513;42.700;23.124;2023-05-07T00:12:24;6.43;;;5.03;;
10717;SDS011;13513;42.700;23.124;2023-05-07T00:14:55;5.50;;;5.00;;
10717;SDS011;13513;42.700;23.124;2023-05-07T00:17:27;6.13;;;4.90;;
10717;SDS011;13513;42.700;23.124;2023-05-07T00:19:58;5.50;;;4.50;;
10717;SDS011;13513;42.700;23.124;2023-05-07T00:22:28;5.33;;;4.73;;
10717;SDS011;13513;42.700;23.124;2023-05-07T00:24:59;6.53;;;4.70;;
10717;SDS011;13513;42.700;23.124;2023-05-07T00:27:29;8.97;;;4.73;;
10717;SDS011;13513;42.700;23.124;2023-05-07T00:30:00;5.60;;;4.80;;
10717;SDS011;13513;42.700;23.124;2023-05-07T00:32:30;5.40;;;4.90;;
10717;SDS011;13513;42.700;23.124;2023-05-07T00:35:03;5.37;;;4.80;;
10717;SDS011;13513;42.700;23.124;2023-05-07T00:37:35;5.60;;;5.10;;
10717;SDS011;13513;42.700;23.124;2023-05-07T00:40:07;5.37;;;4.83;;
10717;SDS011;13513;42.700;23.124;2023-05-07T00:42:39;7.40;;;4.60;;
10717;SDS011;13513;42.700;23.124;2023-05-07T00:45:10;6.50;;;4.67;;
10717;SDS011;13513;42.700;23.124;2023-05-07T00:47:40;6.70;;;4.70;;
10717;SDS011;13513;42.700;23.124;2023-05-07T00:50:11;8.03;;;4.50;;
10717;SDS011;13513;42.700;23.124;2023-05-07T00:52:42;5.20;;;4.10;;
10717;SDS011;13513;42.700;23.124;2023-05-07T00:55:13;7.47;;;4.37;;
10717;SDS011;13513;42.700;23.124;2023-05-07T00:57:43;7.23;;;4.90;;
10717;SDS011;13513;42.700;23.124;2023-05-07T01:00:14;5.70;;;4.10;;
10717;SDS011;13513;42.700;23.124;2023-05-07T01:02:45;7.87;;;4.57;;
10717;SDS011;13513;42.700;23.124;2023-05-07T01:05:17;7.00;;;5.00;;
10717;SDS011;13513;42.700;23.124;2023-05-07T01:07:49;5.40;;;4.90;;
10717;SDS011;13513;42.700;23.124;2023-05-07T01:10:20;5.77;;;5.17;;
10717;SDS011;13513;42.700;23.124;2023-05-07T01:12:50;9.60;;;5.57;;
10717;SDS011;13513;42.700;23.124;2023-05-07T01:15:22;10.00;;;4.20;;
10717;SDS011;13513;42.700;23.124;2023-05-07T01:17:53;5.40;;;4.60;;
10717;SDS011;13513;42.700;23.124;2023-05-07T01:20:27;10.87;;;4.90;;
10717;SDS011;13513;42.700;23.124;2023-05-07T01:22:59;5.40;;;4.60;;
10717;SDS011;13513;42.700;23.124;2023-05-07T01:25:31;5.20;;;4.70;;
10717;SDS011;13513;42.700;23.124;2023-05-07T01:28:02;5.40;;;4.90;;
10717;SDS011;13513;42.700;23.124;2023-05-07T01:30:35;8.37;;;5.80;;
10717;SDS011;13513;42.700;23.124;2023-05-07T01:33:10;16.37;;;8.93;;
10717;SDS011;13513;42.700;23.124;2023-05-07T01:35:43;9.17;;;6.17;;
10717;SDS011;13513;42.700;23.124;2023-05-07T01:38:14;6.17;;;5.57;;
10717;SDS011;13513;42.700;23.124;2023-05-07T01:40:45;16.43;;;10.10;;
10717;SDS011;13513;42.700;23.124;2023-05-07T01:43:16;11.97;;;7.17;;
10717;SDS011;13513;42.700;23.124;2023-05-07T01:45:48;47.93;;;24.43;;
10717;SDS011;13513;42.700;23.124;2023-05-07T01:48:20;34.03;;;18.40;;
10717;SDS011;13513;42.700;23.124;2023-05-07T01:50:51;84.73;;;42.43;;
10717;SDS011;13513;42.700;23.124;2023-05-07T01:53:23;65.50;;;33.53;;
10717;SDS011;13513;42.700;23.124;2023-05-07T01:55:56;17.77;;;10.83;;
10717;SDS011;13513;42.700;23.124;2023-05-07T01:58:27;8.60;;;5.40;;
10717;SDS011;13513;42.700;23.124;2023-05-07T02:00:58;6.80;;;5.37;;
10717;SDS011;13513;42.700;23.124;2023-05-07T02:03:29;6.47;;;5.77;;
10717;SDS011;13513;42.700;23.124;2023-05-07T02:05:59;8.13;;;6.03;;
10717;SDS011;13513;42.700;23.124;2023-05-07T02:08:30;15.97;;;7.30;;
10717;SDS011;13513;42.700;23.124;2023-05-07T02:11:01;8.53;;;6.43;;
10717;SDS011;13513;42.700;23.124;2023-05-07T02:13:33;11.13;;;7.40;;
10717;SDS011;13513;42.700;23.124;2023-05-07T02:16:03;10.70;;;6.93;;
10717;SDS011;13513;42.700;23.124;2023-05-07T02:18:34;8.67;;;7.43;;
10717;SDS011;13513;42.700;23.124;2023-05-07T02:21:05;8.00;;;7.20;;
10717;SDS011;13513;42.700;23.124;2023-05-07T02:23:36;8.10;;;7.30;;
10717;SDS011;13513;42.700;23.124;2023-05-07T02:26:07;8.20;;;7.10;;
10717;SDS011;13513;42.700;23.124;2023-05-07T02:28:38;9.83;;;7.70;;
10717;SDS011;13513;42.700;23.124;2023-05-07T02:31:09;9.40;;;7.60;;
10717;SDS011;13513;42.700;23.124;2023-05-07T02:33:40;9.67;;;6.67;;
10717;SDS011;13513;42.700;23.124;2023-05-07T02:36:11;10.87;;;6.40;;
10717;SDS011;13513;42.700;23.124;2023-05-07T02:38:42;8.70;;;6.67;;
10717;SDS011;13513;42.700;23.124;2023-05-07T02:41:13;7.27;;;6.53;;
10717;SDS011;13513;42.700;23.124;2023-05-07T02:43:50;8.77;;;6.37;;
10717;SDS011;13513;42.700;23.124;2023-05-07T02:46:27;8.97;;;6.90;;
10717;SDS011;13513;42.700;23.124;2023-05-07T02:48:57;12.20;;;7.10;;
10717;SDS011;13513;42.700;23.124;2023-05-07T02:51:27;7.03;;;6.33;;
10717;SDS011;13513;42.700;23.124;2023-05-07T02:53:59;7.43;;;6.70;;
10717;SDS011;13513;42.700;23.124;2023-05-07T02:56:30;7.67;;;6.87;;
10717;SDS011;13513;42.700;23.124;2023-05-07T02:59:01;9.23;;;6.53;;
10717;SDS011;13513;42.700;23.124;2023-05-07T03:01:32;10.00;;;6.50;;
10717;SDS011;13513;42.700;23.124;2023-05-07T03:04:03;10.17;;;7.33;;
10717;SDS011;13513;42.700;23.124;2023-05-07T03:06:33;8.17;;;7.17;;
10717;SDS011;13513;42.700;23.124;2023-05-07T03:09:03;8.20;;;7.30;;
10717;SDS011;13513;42.700;23.124;2023-05-07T03:11:38;8.50;;;6.97;;
10717;SDS011;13513;42.700;23.124;2023-05-07T03:14:09;10.97;;;7.20;;
10717;SDS011;13513;42.700;23.124;2023-05-07T03:16:40;9.83;;;7.23;;
10717;SDS011;13513;42.700;23.124;2023-05-07T03:19:11;10.17;;;7.87;;
10717;SDS011;13513;42.700;23.124;2023-05-07T03:21:42;10.87;;;7.20;;
10717;SDS011;13513;42.700;23.124;2023-05-07T03:24:12;10.03;;;7.77;;
10717;SDS011;13513;42.700;23.124;2023-05-07T03:26:43;10.43;;;7.63;;
10717;SDS011;13513;42.700;23.124;2023-05-07T03:29:14;9.67;;;8.20;;
10717;SDS011;13513;42.700;23.124;2023-05-07T03:31:44;15.33;;;7.77;;
10717;SDS011;13513;42.700;23.124;2023-05-07T03:34:17;9.13;;;7.47;;
10717;SDS011;13513;42.700;23.124;2023-05-07T03:36:48;15.20;;;7.77;;
10717;SDS011;13513;42.700;23.124;2023-05-07T03:39:20;10.00;;;7.87;;
10717;SDS011;13513;42.700;23.124;2023-05-07T03:41:51;8.37;;;7.53;;
10717;SDS011;13513;42.700;23.124;2023-05-07T03:44:22;10.83;;;8.03;;
10717;SDS011;13513;42.700;23.124;2023-05-07T03:46:53;11.67;;;7.70;;
10717;SDS011;13513;42.700;23.124;2023-05-07T03:49:23;11.27;;;7.90;;
10717;SDS011;13513;42.700;23.124;2023-05-07T03:51:54;12.20;;;7.97;;
10717;SDS011;13513;42.700;23.124;2023-05-07T03:54:31;10.10;;;8.30;;
10717;SDS011;13513;42.700;23.124;2023-05-07T03:57:00;10.00;;;8.17;;
10717;SDS011;13513;42.700;23.124;2023-05-07T03:59:31;8.03;;;7.23;;
10717;SDS011;13513;42.700;23.124;2023-05-07T04:02:02;8.07;;;7.07;;
10717;SDS011;13513;42.700;23.124;2023-05-07T04:04:32;10.10;;;7.73;;
10717;SDS011;13513;42.700;23.124;2023-05-07T04:07:03;10.60;;;8.53;;
10717;SDS011;13513;42.700;23.124;2023-05-07T04:09:34;9.93;;;8.00;;
10717;SDS011;13513;42.700;23.124;2023-05-07T04:12:05;11.77;;;8.13;;
10717;SDS011;13513;42.700;23.124;2023-05-07T04:14:35;10.20;;;8.23;;
10717;SDS011;13513;42.700;23.124;2023-05-07T04:17:06;13.33;;;7.60;;
10717;SDS011;13513;42.700;23.124;2023-05-07T04:19:37;9.37;;;7.90;;
10717;SDS011;13513;42.700;23.124;2023-05-07T04:22:09;11.57;;;7.93;;
10717;SDS011;13513;42.700;23.124;2023-05-07T04:24:40;8.75;;;7.75;;
10717;SDS011;13513;42.700;23.124;2023-05-07T04:27:11;9.40;;;7.67;;
10717;SDS011;13513;42.700;23.124;2023-05-07T04:29:42;8.43;;;7.53;;
10717;SDS011;13513;42.700;23.124;2023-05-07T04:32:14;10.50;;;7.73;;
10717;SDS011;13513;42.700;23.124;2023-05-07T04:34:45;9.03;;;7.20;;
10717;SDS011;13513;42.700;23.124;2023-05-07T04:37:16;8.55;;;7.67;;
10717;SDS011;13513;42.700;23.124;2023-05-07T04:39:47;10.68;;;7.72;;
10717;SDS011;13513;42.700;23.124;2023-05-07T04:42:23;9.73;;;6.90;;
10717;SDS011;13513;42.700;23.124;2023-05-07T04:44:55;7.85;;;6.97;;
10717;SDS011;13513;42.700;23.124;2023-05-07T04:47:26;8.50;;;6.78;;
10717;SDS011;13513;42.700;23.124;2023-05-07T04:49:57;11.53;;;7.00;;
10717;SDS011;13513;42.700;23.124;2023-05-07T04:52:28;8.95;;;7.22;;
10717;SDS011;13513;42.700;23.124;2023-05-07T04:55:01;14.15;;;7.17;;
10717;SDS011;13513;42.700;23.124;2023-05-07T04:57:32;9.03;;;7.05;;
10717;SDS011;13513;42.700;23.124;2023-05-07T05:00:03;7.67;;;6.28;;
10717;SDS011;13513;42.700;23.124;2023-05-07T05:02:35;8.68;;;6.10;;
10717;SDS011;13513;42.700;23.124;2023-05-07T05:05:08;8.80;;;6.28;;
10717;SDS011;13513;42.700;23.124;2023-05-07T05:07:39;10.38;;;6.08;;
10717;SDS011;13513;42.700;23.124;2023-05-07T05:10:09;7.10;;;6.08;;
10717;SDS011;13513;42.700;23.124;2023-05-07T05:12:40;10.13;;;6.35;;
10717;SDS011;13513;42.700;23.124;2023-05-07T05:15:12;8.60;;;6.12;;
10717;SDS011;13513;42.700;23.124;2023-05-07T05:17:42;7.72;;;6.00;;
10717;SDS011;13513;42.700;23.124;2023-05-07T05:20:12;9.80;;;6.28;;
10717;SDS011;13513;42.700;23.124;2023-05-07T05:22:42;11.35;;;5.97;;
10717;SDS011;13513;42.700;23.124;2023-05-07T05:25:13;8.88;;;6.65;;
10717;SDS011;13513;42.700;23.124;2023-05-07T05:27:44;6.90;;;5.80;;
10717;SDS011;13513;42.700;23.124;2023-05-07T05:30:14;6.67;;;5.95;;
10717;SDS011;13513;42.700;23.124;2023-05-07T05:32:45;8.75;;;6.37;;
10717;SDS011;13513;42.700;23.124;2023-05-07T05:35:16;7.70;;;6.35;;
10717;SDS011;13513;42.700;23.124;2023-05-07T05:37:47;6.65;;;6.05;;
10717;SDS011;13513;42.700;23.124;2023-05-07T05:40:17;9.65;;;6.25;;
10717;SDS011;13513;42.700;23.124;2023-05-07T05:42:48;14.55;;;6.10;;
10717;SDS011;13513;42.700;23.124;2023-05-07T05:45:18;6.50;;;5.90;;
10717;SDS011;13513;42.700;23.124;2023-05-07T05:47:49;8.90;;;6.20;;
10717;SDS011;13513;42.700;23.124;2023-05-07T05:50:20;16.57;;;15.08;;
10717;SDS011;13513;42.700;23.124;2023-05-07T05:52:51;10.45;;;8.23;;
10717;SDS011;13513;42.700;23.124;2023-05-07T05:55:22;9.50;;;8.08;;
10717;SDS011;13513;42.700;23.124;2023-05-07T05:57:51;8.78;;;6.37;;
10717;SDS011;13513;42.700;23.124;2023-05-07T06:00:22;6.55;;;5.90;;
10717;SDS011;13513;42.700;23.124;2023-05-07T06:02:53;8.18;;;6.17;;
10717;SDS011;13513;42.700;23.124;2023-05-07T06:05:24;8.98;;;6.17;;
10717;SDS011;13513;42.700;23.124;2023-05-07T06:07:55;8.15;;;5.95;;
10717;SDS011;13513;42.700;23.124;2023-05-07T06:10:26;8.23;;;6.40;;
10717;SDS011;13513;42.700;23.124;2023-05-07T06:12:58;10.55;;;6.00;;
10717;SDS011;13513;42.700;23.124;2023-05-07T06:15:28;9.05;;;6.90;;
10717;SDS011;13513;42.700;23.124;2023-05-07T06:17:58;9.45;;;6.47;;
10717;SDS011;13513;42.700;23.124;2023-05-07T06:20:28;6.92;;;5.95;;
10717;SDS011;13513;42.700;23.124;2023-05-07T06:23:00;8.73;;;6.55;;
10717;SDS011;13513;42.700;23.124;2023-05-07T06:25:30;9.38;;;6.15;;
10717;SDS011;13513;42.700;23.124;2023-05-07T06:28:01;8.60;;;6.78;;
10717;SDS011;13513;42.700;23.124;2023-05-07T06:30:32;6.20;;;5.60;;
10717;SDS011;13513;42.700;23.124;2023-05-07T06:33:03;7.80;;;6.10;;
10717;SDS011;13513;42.700;23.124;2023-05-07T06:35:34;8.65;;;5.62;;
10717;SDS011;13513;42.700;23.124;2023-05-07T06:38:04;7.28;;;5.58;;
10717;SDS011;13513;42.700;23.124;2023-05-07T06:40:35;6.67;;;5.70;;
10717;SDS011;13513;42.700;23.124;2023-05-07T06:43:06;6.90;;;5.80;;
10717;SDS011;13513;42.700;23.124;2023-05-07T06:45:37;6.85;;;6.15;;
10717;SDS011;13513;42.700;23.124;2023-05-07T06:48:08;8.03;;;5.65;;
10717;SDS011;13513;42.700;23.124;2023-05-07T06:50:39;6.35;;;5.72;;
10717;SDS011;13513;42.700;23.124;2023-05-07T06:53:11;5.78;;;5.20;;
10717;SDS011;13513;42.700;23.124;2023-05-07T06:55:42;7.30;;;5.55;;
10717;SDS011;13513;42.700;23.124;2023-05-07T06:58:12;6.42;;;5.53;;
10717;SDS011;13513;42.700;23.124;2023-05-07T07:00:43;7.00;;;6.30;;
10717;SDS011;13513;42.700;23.124;2023-05-07T07:03:14;10.60;;;5.50;;
10717;SDS011;13513;42.700;23.124;2023-05-07T07:05:45;8.58;;;5.58;;
10717;SDS011;13513;42.700;23.124;2023-05-07T07:08:16;9.38;;;5.45;;
10717;SDS011;13513;42.700;23.124;2023-05-07T07:10:47;7.95;;;5.67;;
10717;SDS011;13513;42.700;23.124;2023-05-07T07:13:17;8.68;;;6.00;;
10717;SDS011;13513;42.700;23.124;2023-05-07T07:15:48;6.12;;;5.50;;
10717;SDS011;13513;42.700;23.124;2023-05-07T07:18:20;6.53;;;5.58;;
10717;SDS011;13513;42.700;23.124;2023-05-07T07:20:55;5.35;;;4.75;;
10717;SDS011;13513;42.700;23.124;2023-05-07T07:23:26;5.30;;;4.80;;
10717;SDS011;13513;42.700;23.124;2023-05-07T07:25:57;9.65;;;5.53;;
10717;SDS011;13513;42.700;23.124;2023-05-07T07:28:27;7.05;;;5.50;;
10717;SDS011;13513;42.700;23.124;2023-05-07T07:30:58;7.75;;;5.03;;
10717;SDS011;13513;42.700;23.124;2023-05-07T07:33:28;8.43;;;4.78;;
10717;SDS011;13513;42.700;23.124;2023-05-07T07:35:59;5.67;;;5.15;;
10717;SDS011;13513;42.700;23.124;2023-05-07T07:38:30;6.35;;;5.17;;
10717;SDS011;13513;42.700;23.124;2023-05-07T07:41:01;7.78;;;4.83;;
10717;SDS011;13513;42.700;23.124;2023-05-07T07:43:32;5.33;;;4.80;;
10717;SDS011;13513;42.700;23.124;2023-05-07T07:46:03;7.78;;;5.03;;
10717;SDS011;13513;42.700;23.124;2023-05-07T07:48:34;7.10;;;4.87;;
10717;SDS011;13513;42.700;23.124;2023-05-07T07:51:06;6.30;;;4.12;;
10717;SDS011;13513;42.700;23.124;2023-05-07T07:53:36;10.48;;;4.37;;
10717;SDS011;13513;42.700;23.124;2023-05-07T07:56:07;7.22;;;4.05;;
10717;SDS011;13513;42.700;23.124;2023-05-07T07:58:38;5.35;;;4.12;;
10717;SDS011;13513;42.700;23.124;2023-05-07T08:01:09;4.10;;;3.62;;
10717;SDS011;13513;42.700;23.124;2023-05-07T08:03:41;12.47;;;4.20;;
10717;SDS011;13513;42.700;23.124;2023-05-07T08:06:12;5.05;;;3.98;;
10717;SDS011;13513;42.700;23.124;2023-05-07T08:08:43;7.50;;;4.00;;
10717;SDS011;13513;42.700;23.124;2023-05-07T08:11:14;5.40;;;4.33;;
10717;SDS011;13513;42.700;23.124;2023-05-07T08:13:48;4.45;;;3.80;;
10717;SDS011;13513;42.700;23.124;2023-05-07T08:16:19;5.10;;;4.45;;
10717;SDS011;13513;42.700;23.124;2023-05-07T08:18:49;4.85;;;4.35;;
10717;SDS011;13513;42.700;23.124;2023-05-07T08:21:20;7.15;;;4.08;;
10717;SDS011;13513;42.700;23.124;2023-05-07T08:23:51;6.60;;;4.78;;
10717;SDS011;13513;42.700;23.124;2023-05-07T08:26:21;4.37;;;3.50;;
10717;SDS011;13513;42.700;23.124;2023-05-07T08:28:52;6.65;;;3.90;;
10717;SDS011;13513;42.700;23.124;2023-05-07T08:31:23;4.58;;;3.62;;
10717;SDS011;13513;42.700;23.124;2023-05-07T08:33:54;3.92;;;3.62;;
10717;SDS011;13513;42.700;23.124;2023-05-07T08:36:28;7.60;;;3.87;;
10717;SDS011;13513;42.700;23.124;2023-05-07T08:38:59;4.95;;;3.47;;
10717;SDS011;13513;42.700;23.124;2023-05-07T08:41:30;3.92;;;3.45;;
10717;SDS011;13513;42.700;23.124;2023-05-07T08:44:02;4.37;;;3.37;;
10717;SDS011;13513;42.700;23.124;2023-05-07T08:46:34;4.65;;;3.10;;
10717;SDS011;13513;42.700;23.124;2023-05-07T08:49:05;4.10;;;3.33;;
10717;SDS011;13513;42.700;23.124;2023-05-07T08:51:38;5.20;;;3.40;;
10717;SDS011;13513;42.700;23.124;2023-05-07T08:54:10;3.90;;;3.30;;
10717;SDS011;13513;42.700;23.124;2023-05-07T08:56:42;5.72;;;3.40;;
10717;SDS011;13513;42.700;23.124;2023-05-07T08:59:13;7.60;;;3.95;;
10717;SDS011;13513;42.700;23.124;2023-05-07T09:01:43;7.22;;;4.00;;
10717;SDS011;13513;42.700;23.124;2023-05-07T09:04:14;3.83;;;3.52;;
10717;SDS011;13513;42.700;23.124;2023-05-07T09:06:45;4.75;;;3.62;;
10717;SDS011;13513;42.700;23.124;2023-05-07T09:09:19;5.92;;;3.67;;
10717;SDS011;13513;42.700;23.124;2023-05-07T09:11:56;4.22;;;3.70;;
10717;SDS011;13513;42.700;23.124;2023-05-07T09:14:25;5.12;;;3.72;;
10717;SDS011;13513;42.700;23.124;2023-05-07T09:16:56;4.47;;;4.03;;
10717;SDS011;13513;42.700;23.124;2023-05-07T09:19:27;5.83;;;3.98;;
10717;SDS011;13513;42.700;23.124;2023-05-07T09:21:58;4.60;;;3.90;;
10717;SDS011;13513;42.700;23.124;2023-05-07T09:24:30;4.50;;;3.92;;
10717;SDS011;13513;42.700;23.124;2023-05-07T09:27:04;6.45;;;3.77;;
10717;SDS011;13513;42.700;23.124;2023-05-07T09:29:34;5.83;;;3.80;;
10717;SDS011;13513;42.700;23.124;2023-05-07T09:32:05;5.25;;;3.75;;
10717;SDS011;13513;42.700;23.124;2023-05-07T09:34:36;4.40;;;4.00;;
10717;SDS011;13513;42.700;23.124;2023-05-07T09:37:07;5.67;;;4.00;;
10717;SDS011;13513;42.700;23.124;2023-05-07T09:39:43;6.22;;;4.00;;
10717;SDS011;13513;42.700;23.124;2023-05-07T09:42:14;5.50;;;3.67;;
10717;SDS011;13513;42.700;23.124;2023-05-07T09:44:45;4.53;;;3.52;;
10717;SDS011;13513;42.700;23.124;2023-05-07T09:47:18;5.58;;;3.70;;
10717;SDS011;13513;42.700;23.124;2023-05-07T09:49:48;6.20;;;3.95;;
10717;SDS011;13513;42.700;23.124;2023-05-07T09:52:19;5.55;;;3.33;;
10717;SDS011;13513;42.700;23.124;2023-05-07T09:54:51;3.87;;;3.58;;
10717;SDS011;13513;42.700;23.124;2023-05-07T09:57:24;4.08;;;3.17;;
10717;SDS011;13513;42.700;23.124;2023-05-07T09:59:56;5.12;;;3.60;;
10717;SDS011;13513;42.700;23.124;2023-05-07T10:02:28;3.45;;;3.12;;
10717;SDS011;13513;42.700;23.124;2023-05-07T10:05:03;4.83;;;3.67;;
10717;SDS011;13513;42.700;23.124;2023-05-07T10:07:33;3.55;;;2.92;;
10717;SDS011;13513;42.700;23.124;2023-05-07T10:10:06;5.60;;;3.30;;
10717;SDS011;13513;42.700;23.124;2023-05-07T10:12:38;4.67;;;3.33;;
10717;SDS011;13513;42.700;23.124;2023-05-07T10:15:10;4.12;;;3.50;;
10717;SDS011;13513;42.700;23.124;2023-05-07T10:17:44;4.72;;;3.20;;
10717;SDS011;13513;42.700;23.124;2023-05-07T10:20:15;4.83;;;4.28;;
10717;SDS011;13513;42.700;23.124;2023-05-07T10:22:47;3.40;;;3.10;;
10717;SDS011;13513;42.700;23.124;2023-05-07T10:25:23;3.50;;;3.20;;
10717;SDS011;13513;42.700;23.124;2023-05-07T10:27:57;4.15;;;2.87;;
10717;SDS011;13513;42.700;23.124;2023-05-07T10:33:12;3.65;;;2.90;;
10717;SDS011;13513;42.700;23.124;2023-05-07T10:35:46;3.00;;;2.80;;
10717;SDS011;13513;42.700;23.124;2023-05-07T10:38:21;6.95;;;2.62;;
10717;SDS011;13513;42.700;23.124;2023-05-07T10:40:52;3.05;;;2.80;;
10717;SDS011;13513;42.700;23.124;2023-05-07T10:43:23;2.85;;;2.60;;
10717;SDS011;13513;42.700;23.124;2023-05-07T10:51:35;3.92;;;3.00;;
10717;SDS011;13513;42.700;23.124;2023-05-07T11:00:40;4.40;;;2.95;;
10717;SDS011;13513;42.700;23.124;2023-05-07T11:05:35;3.62;;;3.17;;
10717;SDS011;13513;42.700;23.124;2023-05-07T11:08:06;2.70;;;2.45;;
10717;SDS011;13513;42.700;23.124;2023-05-07T11:10:55;2.92;;;2.72;;
10717;SDS011;13513;42.700;23.124;2023-05-07T11:13:45;3.35;;;2.85;;
10717;SDS011;13513;42.700;23.124;2023-05-07T11:16:20;3.12;;;2.83;;
10717;SDS011;13513;42.700;23.124;2023-05-07T11:18:52;3.30;;;3.00;;
10717;SDS011;13513;42.700;23.124;2023-05-07T11:24:10;4.20;;;2.50;;
10717;SDS011;13513;42.700;23.124;2023-05-07T11:26:47;3.40;;;2.77;;
10717;SDS011;13513;42.700;23.124;2023-05-07T11:29:19;5.22;;;2.72;;
10717;SDS011;13513;42.700;23.124;2023-05-07T11:31:50;3.30;;;2.40;;
10717;SDS011;13513;42.700;23.124;2023-05-07T11:34:22;2.95;;;2.47;;
10717;SDS011;13513;42.700;23.124;2023-05-07T11:36:54;3.22;;;2.65;;
10717;SDS011;13513;42.700;23.124;2023-05-07T11:39:27;3.00;;;2.50;;
10717;SDS011;13513;42.700;23.124;2023-05-07T11:42:01;5.50;;;2.70;;
10717;SDS011;13513;42.700;23.124;2023-05-07T11:44:43;4.03;;;2.90;;
10717;SDS011;13513;42.700;23.124;2023-05-07T11:47:17;3.52;;;2.58;;
10717;SDS011;13513;42.700;23.124;2023-05-07T11:49:49;3.17;;;2.62;;
10717;SDS011;13513;42.700;23.124;2023-05-07T11:52:21;4.10;;;2.90;;
10717;SDS011;13513;42.700;23.124;2023-05-07T11:54:54;4.67;;;2.75;;
10717;SDS011;13513;42.700;23.124;2023-05-07T11:57:25;3.87;;;2.62;;
10717;SDS011;13513;42.700;23.124;2023-05-07T11:59:59;4.55;;;2.75;;
10717;SDS011;13513;42.700;23.124;2023-05-07T12:02:30;2.95;;;2.65;;
10717;SDS011;13513;42.700;23.124;2023-05-07T12:05:00;5.10;;;2.87;;
10717;SDS011;13513;42.700;23.124;2023-05-07T12:07:32;4.25;;;2.72;;
10717;SDS011;13513;42.700;23.124;2023-05-07T12:10:05;4.42;;;2.60;;
10717;SDS011;13513;42.700;23.124;2023-05-07T12:12:39;6.15;;;2.80;;
10717;SDS011;13513;42.700;23.124;2023-05-07T12:15:10;3.95;;;2.47;;
10717;SDS011;13513;42.700;23.124;2023-05-07T12:17:41;5.72;;;2.85;;
10717;SDS011;13513;42.700;23.124;2023-05-07T12:20:13;3.85;;;2.30;;
10717;SDS011;13513;42.700;23.124;2023-05-07T12:22:44;3.20;;;2.80;;
10717;SDS011;13513;42.700;23.124;2023-05-07T12:25:18;3.33;;;2.67;;
10717;SDS011;13513;42.700;23.124;2023-05-07T12:27:53;4.45;;;2.42;;
10717;SDS011;13513;42.700;23.124;2023-05-07T12:30:24;3.15;;;2.90;;
10717;SDS011;13513;42.700;23.124;2023-05-07T12:32:55;3.33;;;3.02;;
10717;SDS011;13513;42.700;23.124;2023-05-07T12:35:26;4.58;;;2.55;;
10717;SDS011;13513;42.700;23.124;2023-05-07T12:37:58;4.20;;;2.80;;
10717;SDS011;13513;42.700;23.124;2023-05-07T12:40:39;4.15;;;2.70;;
10717;SDS011;13513;42.700;23.124;2023-05-07T12:43:20;3.98;;;2.60;;
10717;SDS011;13513;42.700;23.124;2023-05-07T12:46:03;3.72;;;2.70;;
10717;SDS011;13513;42.700;23.124;2023-05-07T12:48:30;3.45;;;2.62;;
10717;SDS011;13513;42.700;23.124;2023-05-07T12:51:00;3.47;;;2.60;;
10717;SDS011;13513;42.700;23.124;2023-05-07T12:53:31;4.47;;;2.75;;
10717;SDS011;13513;42.700;23.124;2023-05-07T12:56:02;2.47;;;2.27;;
10717;SDS011;13513;42.700;23.124;2023-05-07T12:58:34;8.70;;;2.77;;
10717;SDS011;13513;42.700;23.124;2023-05-07T13:01:06;3.17;;;2.62;;
10717;SDS011;13513;42.700;23.124;2023-05-07T13:03:37;3.58;;;2.50;;
10717;SDS011;13513;42.700;23.124;2023-05-07T13:06:08;5.80;;;2.58;;
10717;SDS011;13513;42.700;23.124;2023-05-07T13:08:41;3.52;;;2.80;;
10717;SDS011;13513;42.700;23.124;2023-05-07T13:11:12;3.00;;;2.70;;
10717;SDS011;13513;42.700;23.124;2023-05-07T13:13:45;3.27;;;2.80;;
10717;SDS011;13513;42.700;23.124;2023-05-07T13:16:15;2.95;;;2.50;;
10717;SDS011;13513;42.700;23.124;2023-05-07T13:18:47;2.95;;;2.30;;
10717;SDS011;13513;42.700;23.124;2023-05-07T13:21:18;5.22;;;3.00;;
10717;SDS011;13513;42.700;23.124;2023-05-07T13:23:49;4.33;;;2.47;;
10717;SDS011;13513;42.700;23.124;2023-05-07T13:26:19;4.03;;;2.35;;
10717;SDS011;13513;42.700;23.124;2023-05-07T13:28:49;3.15;;;2.62;;
10717;SDS011;13513;42.700;23.124;2023-05-07T13:31:20;2.90;;;2.60;;
10717;SDS011;13513;42.700;23.124;2023-05-07T13:33:51;4.37;;;2.58;;
10717;SDS011;13513;42.700;23.124;2023-05-07T13:36:21;3.80;;;3.00;;
10717;SDS011;13513;42.700;23.124;2023-05-07T13:38:50;4.33;;;2.80;;
10717;SDS011;13513;42.700;23.124;2023-05-07T13:41:21;2.60;;;2.40;;
10717;SDS011;13513;42.700;23.124;2023-05-07T13:43:52;2.92;;;2.37;;
10717;SDS011;13513;42.700;23.124;2023-05-07T13:46:22;2.80;;;2.50;;
10717;SDS011;13513;42.700;23.124;2023-05-07T13:48:53;3.33;;;2.37;;
10717;SDS011;13513;42.700;23.124;2023-05-07T13:51:24;4.15;;;2.60;;
10717;SDS011;13513;42.700;23.124;2023-05-07T13:54:00;3.98;;;2.35;;
10717;SDS011;13513;42.700;23.124;2023-05-07T13:56:31;4.58;;;2.77;;
10717;SDS011;13513;42.700;23.124;2023-05-07T13:59:01;2.90;;;2.62;;
10717;SDS011;13513;42.700;23.124;2023-05-07T14:01:32;3.45;;;2.62;;
10717;SDS011;13513;42.700;23.124;2023-05-07T14:04:03;4.37;;;2.75;;
10717;SDS011;13513;42.700;23.124;2023-05-07T14:06:34;2.90;;;2.70;;
10717;SDS011;13513;42.700;23.124;2023-05-07T14:09:05;2.62;;;2.42;;
10717;SDS011;13513;42.700;23.124;2023-05-07T14:11:36;5.55;;;2.87;;
10717;SDS011;13513;42.700;23.124;2023-05-07T14:14:06;3.17;;;2.72;;
10717;SDS011;13513;42.700;23.124;2023-05-07T14:16:37;5.10;;;3.02;;
10717;SDS011;13513;42.700;23.124;2023-05-07T14:19:08;5.65;;;2.52;;
10717;SDS011;13513;42.700;23.124;2023-05-07T14:21:39;4.03;;;2.22;;
10717;SDS011;13513;42.700;23.124;2023-05-07T14:24:09;5.97;;;2.70;;
10717;SDS011;13513;42.700;23.124;2023-05-07T14:26:40;3.80;;;2.62;;
10717;SDS011;13513;42.700;23.124;2023-05-07T14:29:11;2.70;;;2.40;;
10717;SDS011;13513;42.700;23.124;2023-05-07T14:31:41;3.70;;;2.60;;
10717;SDS011;13513;42.700;23.124;2023-05-07T14:34:12;2.70;;;2.50;;
10717;SDS011;13513;42.700;23.124;2023-05-07T14:36:42;5.17;;;2.98;;
10717;SDS011;13513;42.700;23.124;2023-05-07T14:39:12;3.25;;;2.58;;
10717;SDS011;13513;42.700;23.124;2023-05-07T14:41:43;6.60;;;2.95;;
10717;SDS011;13513;42.700;23.124;2023-05-07T14:44:14;3.95;;;2.62;;
10717;SDS011;13513;42.700;23.124;2023-05-07T14:46:46;4.83;;;2.70;;
10717;SDS011;13513;42.700;23.124;2023-05-07T14:49:16;3.50;;;2.70;;
10717;SDS011;13513;42.700;23.124;2023-05-07T14:51:50;2.87;;;2.40;;
10717;SDS011;13513;42.700;23.124;2023-05-07T14:54:20;4.35;;;2.40;;
10717;SDS011;13513;42.700;23.124;2023-05-07T14:56:51;4.55;;;3.12;;
10717;SDS011;13513;42.700;23.124;2023-05-07T14:59:22;4.55;;;2.60;;
10717;SDS011;13513;42.700;23.124;2023-05-07T15:01:53;4.30;;;2.20;;
10717;SDS011;13513;42.700;23.124;2023-05-07T15:04:24;4.30;;;2.37;;
10717;SDS011;13513;42.700;23.124;2023-05-07T15:06:54;2.85;;;2.58;;
10717;SDS011;13513;42.700;23.124;2023-05-07T15:09:25;3.70;;;2.75;;
10717;SDS011;13513;42.700;23.124;2023-05-07T15:11:55;3.20;;;2.75;;
10717;SDS011;13513;42.700;23.124;2023-05-07T15:14:26;2.72;;;2.40;;
10717;SDS011;13513;42.700;23.124;2023-05-07T15:16:57;3.15;;;2.70;;
10717;SDS011;13513;42.700;23.124;2023-05-07T15:19:28;4.60;;;2.72;;